Time;durP1;ratioP1;P1;durP2;ratioP2;P2;SDS_P1;SDS_P2;PMS_P1;PMS_P2;Temp;Humidity;BMP_temperature;BMP_pressure;BME280_temperature;BME280_humidity;BME280_pressure;Samples;Min_cycle;Max_cycle;Signal;HPM_P1;HPM_P2
2023/08/14 00:00:56;;;;;;;4.95;3.38;;;14.00;99.90;;;;;;5084327;28;20196;-70
2023/08/14 00:03:27;;;;;;;4.10;3.38;;;14.10;99.90;;;;;;5073913;28;20196;-70
2023/08/14 00:05:58;;;;;;;3.50;2.70;;;14.10;99.90;;;;;;5089155;28;20301;-70
2023/08/14 00:08:30;;;;;;;3.92;3.00;;;14.10;99.90;;;;;;5093229;28;20558;-71
2023/08/14 00:11:01;;;;;;;4.88;3.00;;;14.10;99.90;;;;;;5093560;28;20232;-76
2023/08/14 00:13:32;;;;;;;5.68;4.38;;;14.20;99.90;;;;;;5093548;28;20197;-72
2023/08/14 00:16:02;;;;;;;5.43;3.58;;;14.20;99.90;;;;;;5092625;28;20192;-72
2023/08/14 00:18:33;;;;;;;4.93;3.70;;;14.20;99.90;;;;;;5093780;28;20212;-73
2023/08/14 00:21:04;;;;;;;6.05;3.80;;;14.30;99.90;;;;;;5093894;28;20242;-76
2023/08/14 00:23:36;;;;;;;4.22;3.45;;;14.40;99.90;;;;;;5094504;28;20631;-72
2023/08/14 00:26:07;;;;;;;5.90;3.80;;;14.50;99.90;;;;;;5093693;28;20224;-73
2023/08/14 00:28:38;;;;;;;5.47;3.70;;;14.50;99.90;;;;;;5093462;28;20189;-74
2023/08/14 00:31:09;;;;;;;5.47;4.47;;;14.60;99.90;;;;;;5093946;28;20191;-69
2023/08/14 00:33:39;;;;;;;5.90;4.25;;;14.60;99.90;;;;;;5093527;28;20189;-73
2023/08/14 00:36:10;;;;;;;6.20;4.97;;;14.70;99.90;;;;;;5093500;28;20184;-71
2023/08/14 00:38:43;;;;;;;7.05;4.90;;;14.70;99.90;;;;;;5093672;28;20255;-69
2023/08/14 00:41:13;;;;;;;6.07;4.55;;;14.70;99.90;;;;;;5093626;28;20644;-74
2023/08/14 00:43:44;;;;;;;6.13;4.40;;;14.80;99.90;;;;;;5093307;28;20189;-70
2023/08/14 00:46:16;;;;;;;5.53;4.05;;;14.80;99.90;;;;;;5092628;28;20185;-71
2023/08/14 00:48:46;;;;;;;5.10;3.70;;;14.80;99.90;;;;;;5093704;28;20188;-71
2023/08/14 00:51:18;;;;;;;7.22;4.10;;;14.80;99.90;;;;;;5093389;28;20188;-70
2023/08/14 00:53:51;;;;;;;5.07;3.67;;;14.80;99.90;;;;;;5093251;28;20188;-69
2023/08/14 00:56:23;;;;;;;7.32;3.25;;;14.80;99.90;;;;;;5093095;28;20188;-70
2023/08/14 00:58:54;;;;;;;5.07;3.10;;;14.80;99.90;;;;;;5093287;28;20785;-70
2023/08/14 01:01:25;;;;;;;4.85;3.10;;;14.90;99.90;;;;;;5093004;28;20256;-72
2023/08/14 01:03:56;;;;;;;3.72;2.70;;;14.90;99.90;;;;;;5093079;28;20668;-71
2023/08/14 01:06:26;;;;;;;4.55;3.00;;;15.00;99.90;;;;;;5093146;28;20193;-71
2023/08/14 01:08:59;;;;;;;4.60;3.00;;;15.00;99.90;;;;;;5093194;28;20184;-70
2023/08/14 01:11:40;;;;;;;5.63;3.10;;;15.10;99.90;;;;;;5092974;28;20595;-72
2023/08/14 01:14:21;;;;;;;3.70;3.10;;;15.10;99.90;;;;;;5093309;28;20282;-73
2023/08/14 01:16:56;;;;;;;5.80;3.15;;;15.10;99.90;;;;;;5093022;28;20187;-72
2023/08/14 01:19:34;;;;;;;3.63;2.88;;;15.20;99.90;;;;;;5092889;28;20219;-71
2023/08/14 01:22:08;;;;;;;3.38;2.72;;;15.30;99.90;;;;;;5093088;28;20632;-70
2023/08/14 01:24:54;;;;;;;4.90;2.97;;;15.40;99.90;;;;;;5092691;28;20317;-71
2023/08/14 01:27:28;;;;;;;4.55;2.92;;;15.40;99.90;;;;;;5092976;28;20184;-70
2023/08/14 01:30:00;;;;;;;4.57;2.45;;;15.60;99.90;;;;;;5092934;28;20203;-71
2023/08/14 01:32:30;;;;;;;2.47;2.25;;;15.60;99.90;;;;;;5093006;28;20203;-73
2023/08/14 01:35:01;;;;;;;2.45;2.05;;;15.50;99.90;;;;;;5092913;28;20188;-70
2023/08/14 01:37:37;;;;;;;2.45;2.13;;;15.50;99.90;;;;;;5093099;28;20184;-73
2023/08/14 01:40:13;;;;;;;3.58;2.58;;;15.50;99.90;;;;;;5092876;28;20195;-70
2023/08/14 01:42:48;;;;;;;2.50;2.03;;;15.50;99.90;;;;;;5093022;28;20192;-70
2023/08/14 01:45:22;;;;;;;3.72;2.10;;;15.60;99.90;;;;;;5092892;28;20188;-69
2023/08/14 01:47:53;;;;;;;2.53;2.13;;;15.70;99.90;;;;;;5093009;28;20200;-69
2023/08/14 01:50:27;;;;;;;2.10;1.90;;;15.70;99.90;;;;;;5092938;28;20197;-69
2023/08/14 01:52:58;;;;;;;2.20;2.00;;;15.80;99.90;;;;;;5092898;28;20544;-69
2023/08/14 01:55:29;;;;;;;2.30;1.92;;;15.80;99.90;;;;;;5092683;28;20193;-69
2023/08/14 01:58:02;;;;;;;2.15;1.80;;;15.90;99.90;;;;;;5092742;28;20216;-69
2023/08/14 02:00:33;;;;;;;2.47;2.20;;;15.80;99.90;;;;;;5092883;28;20203;-69
2023/08/14 02:03:04;;;;;;;1.98;1.73;;;15.80;99.90;;;;;;5092863;28;20188;-69
2023/08/14 02:05:35;;;;;;;2.10;1.70;;;15.80;99.90;;;;;;5078974;28;20186;-69
2023/08/14 02:08:06;;;;;;;1.90;1.73;;;15.70;99.90;;;;;;5084925;28;20203;-69
2023/08/14 02:10:37;;;;;;;1.83;1.73;;;15.60;99.90;;;;;;5079291;28;20691;-69
2023/08/14 02:13:09;;;;;;;2.42;1.60;;;15.60;99.90;;;;;;5080078;28;20636;-73
2023/08/14 02:15:40;;;;;;;8.23;5.20;;;15.60;99.90;;;;;;5081871;28;20202;-70
2023/08/14 02:18:11;;;;;;;3.55;1.80;;;15.60;99.90;;;;;;5087199;28;20220;-69
2023/08/14 02:20:48;;;;;;;1.70;1.60;;;15.60;99.90;;;;;;5078988;28;20197;-69
2023/08/14 02:23:19;;;;;;;2.05;1.65;;;15.70;99.90;;;;;;5077412;28;20192;-70
2023/08/14 02:25:49;;;;;;;1.50;1.40;;;15.80;99.90;;;;;;5094185;28;20185;-69
2023/08/14 02:28:22;;;;;;;2.17;1.83;;;16.00;99.90;;;;;;5093004;28;20568;-69
2023/08/14 02:30:53;;;;;;;2.50;2.30;;;16.00;99.90;;;;;;5082864;28;20227;-68
2023/08/14 02:33:23;;;;;;;2.25;2.05;;;16.10;99.90;;;;;;5080110;28;20189;-70
2023/08/14 02:35:54;;;;;;;2.70;1.60;;;16.10;99.90;;;;;;5085044;28;20668;-72
2023/08/14 02:38:25;;;;;;;2.80;1.60;;;16.10;99.90;;;;;;5073920;28;20209;-69
2023/08/14 02:40:55;;;;;;;1.92;1.67;;;16.10;99.90;;;;;;5076386;28;20211;-70
2023/08/14 02:43:28;;;;;;;2.10;1.90;;;16.20;99.90;;;;;;5077600;28;20192;-69
2023/08/14 02:45:59;;;;;;;2.10;1.90;;;16.10;99.90;;;;;;5095728;28;20207;-69
2023/08/14 02:48:29;;;;;;;2.10;1.90;;;16.00;99.90;;;;;;5083749;28;20201;-70
2023/08/14 02:51:00;;;;;;;3.03;2.00;;;16.00;99.90;;;;;;5075591;28;20212;-69
2023/08/14 02:53:31;;;;;;;2.10;1.90;;;16.00;99.90;;;;;;5087433;28;20194;-70
2023/08/14 02:56:02;;;;;;;2.20;1.98;;;15.90;99.90;;;;;;5095518;28;20212;-69
2023/08/14 02:58:35;;;;;;;1.65;1.55;;;15.80;99.90;;;;;;5093647;28;20216;-69
2023/08/14 03:01:06;;;;;;;7.40;5.72;;;15.80;99.90;;;;;;5086095;28;20274;-69
2023/08/14 03:03:37;;;;;;;3.17;2.60;;;15.70;99.90;;;;;;5075289;28;20633;-69
2023/08/14 03:06:08;;;;;;;1.92;1.83;;;15.70;99.90;;;;;;5079143;28;20192;-70
2023/08/14 03:08:39;;;;;;;2.53;1.70;;;15.70;99.90;;;;;;5082550;28;20192;-69
2023/08/14 03:11:09;;;;;;;3.58;2.10;;;15.60;99.90;;;;;;5087017;28;20228;-73
2023/08/14 03:13:42;;;;;;;4.43;2.90;;;15.60;99.90;;;;;;5079272;28;20199;-73
2023/08/14 03:16:13;;;;;;;3.13;2.60;;;15.60;99.90;;;;;;5084553;28;20215;-71
2023/08/14 03:18:44;;;;;;;2.85;2.38;;;15.60;99.90;;;;;;5074470;28;20221;-74
2023/08/14 03:21:14;;;;;;;3.15;2.22;;;15.50;99.90;;;;;;5074590;28;20204;-75
2023/08/14 03:23:47;;;;;;;2.88;2.08;;;15.50;99.90;;;;;;5081634;28;20239;-74
2023/08/14 03:26:17;;;;;;;3.80;2.17;;;15.40;99.90;;;;;;5084150;28;20613;-71
2023/08/14 03:28:50;;;;;;;2.58;2.13;;;15.30;99.90;;;;;;5074377;28;20659;-72
2023/08/14 03:31:21;;;;;;;2.63;2.03;;;15.20;99.90;;;;;;5082336;28;20211;-71
2023/08/14 03:33:51;;;;;;;3.85;1.95;;;15.20;99.90;;;;;;5073622;28;20197;-73
2023/08/14 03:36:22;;;;;;;4.70;2.70;;;15.10;99.90;;;;;;5084095;28;20196;-73
2023/08/14 03:38:53;;;;;;;3.45;2.47;;;15.20;99.90;;;;;;5077565;28;20235;-73
2023/08/14 03:41:24;;;;;;;2.17;1.73;;;15.20;99.90;;;;;;5075514;28;20566;-73
2023/08/14 03:43:56;;;;;;;2.50;1.75;;;15.20;99.90;;;;;;5088857;28;20200;-73
2023/08/14 03:46:27;;;;;;;2.03;1.15;;;15.20;99.90;;;;;;5079295;28;20192;-72
2023/08/14 03:48:58;;;;;;;2.45;1.08;;;15.20;99.90;;;;;;5080897;28;20197;-74
2023/08/14 03:51:28;;;;;;;1.13;0.63;;;15.10;99.90;;;;;;5082352;28;20271;-74
2023/08/14 03:53:59;;;;;;;0.95;0.60;;;15.00;99.90;;;;;;5084736;28;20197;-73
2023/08/14 03:56:30;;;;;;;1.75;0.73;;;14.90;99.90;;;;;;5094533;28;20188;-73
2023/08/14 03:59:02;;;;;;;1.88;0.50;;;14.80;99.90;;;;;;5088349;28;20212;-73
2023/08/14 04:01:34;;;;;;;1.52;0.60;;;14.70;99.90;;;;;;5083365;28;20192;-72
2023/08/14 04:04:05;;;;;;;0.50;0.50;;;14.70;99.90;;;;;;5082247;28;20239;-74
2023/08/14 04:06:37;;;;;;;0.60;0.30;;;14.60;99.90;;;;;;5092693;28;20189;-71
2023/08/14 04:09:10;;;;;;;1.45;0.50;;;14.60;99.90;;;;;;5080814;28;20197;-73
2023/08/14 04:11:41;;;;;;;1.30;0.60;;;14.50;99.90;;;;;;5081015;28;20373;-73
2023/08/14 04:14:14;;;;;;;1.77;0.60;;;14.50;99.90;;;;;;5092427;28;20203;-74
2023/08/14 04:16:45;;;;;;;1.17;0.70;;;14.40;99.90;;;;;;5083676;28;20192;-73
2023/08/14 04:19:17;;;;;;;1.85;0.90;;;14.30;99.90;;;;;;5079508;28;20222;-74
2023/08/14 04:21:47;;;;;;;1.30;0.50;;;14.30;99.90;;;;;;5089499;28;20559;-73
2023/08/14 04:24:18;;;;;;;2.97;0.70;;;14.20;99.90;;;;;;5073502;28;20585;-72
2023/08/14 04:26:49;;;;;;;2.17;0.70;;;14.20;99.90;;;;;;5073267;28;20197;-74
2023/08/14 04:29:22;;;;;;;4.00;0.80;;;14.10;99.90;;;;;;5077484;28;20562;-74
2023/08/14 04:31:53;;;;;;;3.60;0.73;;;14.10;99.90;;;;;;5079071;28;20196;-74
2023/08/14 04:34:24;;;;;;;2.42;0.70;;;14.10;99.90;;;;;;5083940;28;20764;-74
2023/08/14 04:36:54;;;;;;;2.15;0.70;;;14.10;99.90;;;;;;5079234;28;20197;-74
2023/08/14 04:39:25;;;;;;;2.08;0.90;;;14.10;99.90;;;;;;5073276;28;20220;-75
2023/08/14 04:41:56;;;;;;;2.03;0.50;;;14.10;99.90;;;;;;5079728;28;20203;-70
2023/08/14 04:44:28;;;;;;;2.15;0.68;;;14.10;99.90;;;;;;5089462;28;20197;-75
2023/08/14 04:46:59;;;;;;;1.73;0.68;;;14.10;99.90;;;;;;5079619;28;20184;-75
2023/08/14 04:49:30;;;;;;;2.83;0.65;;;14.00;99.90;;;;;;5077138;28;20648;-74
2023/08/14 04:52:01;;;;;;;1.95;0.70;;;14.10;99.90;;;;;;5084662;28;20192;-75
2023/08/14 04:54:34;;;;;;;2.17;0.75;;;14.10;99.90;;;;;;5073261;28;20656;-74
2023/08/14 04:57:05;;;;;;;2.55;0.90;;;14.00;99.90;;;;;;5074555;28;20189;-74
2023/08/14 04:59:37;;;;;;;3.40;0.90;;;14.00;99.90;;;;;;5093459;28;20311;-74
2023/08/14 05:02:08;;;;;;;0.98;0.60;;;14.00;99.90;;;;;;5093139;28;20195;-72
2023/08/14 05:04:39;;;;;;;3.15;0.70;;;14.00;99.90;;;;;;5080274;28;20185;-74
2023/08/14 05:07:10;;;;;;;2.95;0.82;;;14.00;99.90;;;;;;5073678;28;20212;-73
2023/08/14 05:09:40;;;;;;;2.28;0.50;;;14.00;99.90;;;;;;5072778;28;20651;-71
2023/08/14 05:12:12;;;;;;;1.20;0.80;;;14.00;99.90;;;;;;5072942;28;20292;-73
2023/08/14 05:14:44;;;;;;;1.23;0.68;;;14.00;99.90;;;;;;5079947;28;20575;-74
2023/08/14 05:17:15;;;;;;;1.38;0.50;;;13.90;99.90;;;;;;5092509;28;20188;-72
2023/08/14 05:19:46;;;;;;;3.55;0.75;;;13.90;99.90;;;;;;5089572;28;20594;-75
2023/08/14 05:22:16;;;;;;;1.17;0.60;;;13.80;99.90;;;;;;5085540;28;20564;-74
2023/08/14 05:24:47;;;;;;;0.93;0.50;;;13.80;99.90;;;;;;5088536;28;20268;-75
2023/08/14 05:27:18;;;;;;;2.55;0.80;;;13.80;99.90;;;;;;5086816;28;20263;-75
2023/08/14 05:29:51;;;;;;;2.47;0.70;;;13.70;99.90;;;;;;5092998;28;20193;-75
2023/08/14 05:32:22;;;;;;;4.38;0.50;;;13.70;99.90;;;;;;5080280;28;20197;-74
2023/08/14 05:34:53;;;;;;;2.45;0.70;;;13.70;99.90;;;;;;5090356;28;20201;-73
2023/08/14 05:37:23;;;;;;;4.80;0.70;;;13.70;99.90;;;;;;5076421;28;20700;-74
2023/08/14 05:39:54;;;;;;;3.67;0.80;;;13.70;99.90;;;;;;5082889;28;20208;-74
2023/08/14 05:42:25;;;;;;;1.77;0.65;;;13.70;99.90;;;;;;5076018;28;21121;-73
2023/08/14 05:44:57;;;;;;;1.58;0.60;;;13.70;99.90;;;;;;5081265;28;20211;-70
2023/08/14 05:47:29;;;;;;;1.40;0.70;;;13.70;99.90;;;;;;5081613;28;20196;-72
2023/08/14 05:49:59;;;;;;;3.80;0.70;;;13.60;99.90;;;;;;5077033;28;20189;-72
2023/08/14 05:52:30;;;;;;;2.33;0.68;;;13.60;99.90;;;;;;5078647;28;20192;-69
2023/08/14 05:55:01;;;;;;;1.55;0.70;;;13.60;99.90;;;;;;5079804;28;20683;-70
2023/08/14 05:57:31;;;;;;;1.33;0.60;;;13.70;99.90;;;;;;5086842;28;20620;-68
2023/08/14 06:00:04;;;;;;;2.20;0.82;;;13.70;99.90;;;;;;5078438;28;20217;-69
2023/08/14 06:02:35;;;;;;;0.95;0.60;;;13.70;99.90;;;;;;5096259;28;20238;-70
2023/08/14 06:05:08;;;;;;;2.35;0.85;;;13.70;99.90;;;;;;5087362;28;20551;-69
2023/08/14 06:07:38;;;;;;;2.63;0.70;;;13.70;99.90;;;;;;5075409;28;20211;-68
2023/08/14 06:10:10;;;;;;;2.30;0.60;;;13.70;99.90;;;;;;5080832;28;20224;-68
2023/08/14 06:12:40;;;;;;;3.30;0.70;;;13.70;99.90;;;;;;5086720;28;20193;-68
2023/08/14 06:15:14;;;;;;;1.33;0.63;;;13.60;99.90;;;;;;5083632;28;20192;-69
2023/08/14 06:17:44;;;;;;;2.10;0.80;;;13.60;99.90;;;;;;5079184;28;20189;-68
2023/08/14 06:20:16;;;;;;;2.55;0.50;;;13.60;99.90;;;;;;5089982;28;20223;-69
2023/08/14 06:22:48;;;;;;;4.65;0.68;;;13.60;99.90;;;;;;5088375;28;20250;-69
2023/08/14 06:25:19;;;;;;;1.27;0.65;;;13.60;99.90;;;;;;5096109;28;20587;-69
2023/08/14 06:27:51;;;;;;;2.38;0.60;;;13.60;99.90;;;;;;5095934;28;20189;-70
2023/08/14 06:30:24;;;;;;;1.02;0.68;;;13.60;99.90;;;;;;5084554;28;20192;-69
2023/08/14 06:32:55;;;;;;;2.40;0.63;;;13.60;99.90;;;;;;5086350;28;20250;-70
2023/08/14 06:35:26;;;;;;;1.65;0.70;;;13.60;99.90;;;;;;5078798;28;20205;-68
2023/08/14 06:37:57;;;;;;;1.55;0.73;;;13.50;99.90;;;;;;5084961;28;20201;-69
2023/08/14 06:40:27;;;;;;;2.58;0.73;;;13.60;99.90;;;;;;5081037;28;20223;-69
2023/08/14 06:42:58;;;;;;;1.60;0.60;;;13.60;99.90;;;;;;5087205;28;20196;-69
2023/08/14 06:45:31;;;;;;;1.95;0.60;;;13.50;99.90;;;;;;5075487;28;20200;-74
2023/08/14 06:48:01;;;;;;;3.53;0.80;;;13.50;99.90;;;;;;5077027;28;20204;-70
2023/08/14 06:50:32;;;;;;;1.98;0.60;;;13.50;99.90;;;;;;5080832;28;20223;-71
2023/08/14 06:53:03;;;;;;;1.60;0.65;;;13.50;99.90;;;;;;5081920;28;20207;-74
2023/08/14 06:55:33;;;;;;;0.73;0.50;;;13.50;99.90;;;;;;5080749;28;20569;-74
2023/08/14 06:58:04;;;;;;;2.60;0.80;;;13.50;99.90;;;;;;5084831;28;20200;-71
2023/08/14 07:00:37;;;;;;;1.17;0.55;;;13.50;99.90;;;;;;5072342;28;20220;-73
2023/08/14 07:03:08;;;;;;;4.20;0.65;;;13.40;99.90;;;;;;5076620;28;21091;-73
2023/08/14 07:05:38;;;;;;;1.45;0.70;;;13.40;99.90;;;;;;5081141;28;20197;-74
2023/08/14 07:08:09;;;;;;;3.03;0.82;;;13.40;99.90;;;;;;5079023;28;20203;-75
2023/08/14 07:10:40;;;;;;;1.95;0.70;;;13.40;99.90;;;;;;5079702;28;20326;-69
2023/08/14 07:13:11;;;;;;;3.58;0.82;;;13.40;99.90;;;;;;5084079;28;20208;-68
2023/08/14 07:15:47;;;;;;;1.33;0.80;;;13.40;99.90;;;;;;5080511;28;20199;-74
2023/08/14 07:18:18;;;;;;;2.25;0.60;;;13.40;99.90;;;;;;5075439;28;20201;-74
2023/08/14 07:20:49;;;;;;;2.35;0.70;;;13.40;99.90;;;;;;5079015;28;20232;-75
2023/08/14 07:23:20;;;;;;;0.82;0.60;;;13.40;99.90;;;;;;5084039;28;20221;-74
2023/08/14 07:25:51;;;;;;;3.47;0.88;;;13.30;99.90;;;;;;5078762;28;20219;-74
2023/08/14 07:28:22;;;;;;;3.20;0.73;;;13.30;99.90;;;;;;5086548;28;20608;-73
2023/08/14 07:30:55;;;;;;;3.55;0.90;;;13.40;99.90;;;;;;5082771;28;20564;-74
2023/08/14 07:33:25;;;;;;;2.55;0.80;;;13.40;99.90;;;;;;5082953;28;20204;-69
2023/08/14 07:35:56;;;;;;;5.47;1.10;;;13.30;99.90;;;;;;5084416;28;20200;-69
2023/08/14 07:38:27;;;;;;;1.42;0.88;;;13.30;99.90;;;;;;5085315;28;20201;-69
2023/08/14 07:40:58;;;;;;;1.35;0.68;;;13.30;99.90;;;;;;5085856;28;20220;-69
2023/08/14 07:43:29;;;;;;;3.10;0.85;;;13.30;99.90;;;;;;5094307;28;20188;-70
2023/08/14 07:46:01;;;;;;;3.25;0.73;;;13.30;99.90;;;;;;5080671;28;20196;-68
2023/08/14 07:48:32;;;;;;;2.28;1.00;;;13.30;99.90;;;;;;5075938;28;20192;-69
2023/08/14 07:51:03;;;;;;;1.00;0.90;;;13.20;99.90;;;;;;5073795;28;20651;-69
2023/08/14 07:53:34;;;;;;;1.00;0.77;;;13.30;99.90;;;;;;5074360;28;20193;-71
2023/08/14 07:56:05;;;;;;;1.90;0.98;;;13.30;99.90;;;;;;5091823;28;20193;-77
2023/08/14 07:58:35;;;;;;;1.25;0.80;;;13.30;99.90;;;;;;5088026;28;20196;-74
2023/08/14 08:01:08;;;;;;;1.77;1.00;;;13.30;99.90;;;;;;5073689;28;20216;-76
2023/08/14 08:03:39;;;;;;;2.00;0.85;;;13.20;99.90;;;;;;5075176;28;20196;-77
2023/08/14 08:06:12;;;;;;;3.00;0.98;;;13.30;99.90;;;;;;5079755;28;20554;-73
2023/08/14 08:08:43;;;;;;;2.10;0.85;;;13.30;99.90;;;;;;5089647;28;20188;-72
2023/08/14 08:11:13;;;;;;;1.13;0.90;;;13.30;99.90;;;;;;5080823;28;20247;-74
2023/08/14 08:13:44;;;;;;;1.58;0.82;;;13.30;99.90;;;;;;5084398;28;20196;-69
2023/08/14 08:16:17;;;;;;;1.65;1.02;;;13.30;99.90;;;;;;5077386;28;20205;-73
2023/08/14 08:18:47;;;;;;;3.95;1.20;;;13.30;99.90;;;;;;5076383;28;20197;-74
2023/08/14 08:21:18;;;;;;;3.20;1.30;;;13.40;99.90;;;;;;5083974;28;20208;-73
2023/08/14 08:23:49;;;;;;;2.15;1.20;;;13.30;99.90;;;;;;5083995;28;20220;-69
2023/08/14 08:26:20;;;;;;;3.83;1.20;;;13.30;99.90;;;;;;5080398;28;20204;-70
2023/08/14 08:28:50;;;;;;;2.97;1.60;;;13.40;99.90;;;;;;5081735;28;20249;-73
2023/08/14 08:31:23;;;;;;;3.15;1.48;;;13.40;99.90;;;;;;5082987;28;20562;-72
2023/08/14 08:33:54;;;;;;;2.63;1.63;;;13.40;99.90;;;;;;5081138;28;20270;-72
2023/08/14 08:36:25;;;;;;;2.45;1.33;;;13.40;99.90;;;;;;5079686;28;20571;-72
2023/08/14 08:38:55;;;;;;;2.30;1.23;;;13.40;99.90;;;;;;5085166;28;20196;-69
2023/08/14 08:41:30;;;;;;;3.15;1.40;;;13.40;99.90;;;;;;5074667;28;20217;-70
2023/08/14 08:44:08;;;;;;;4.85;1.60;;;13.40;99.90;;;;;;5085434;28;20196;-70
2023/08/14 08:46:44;;;;;;;3.45;1.48;;;13.40;99.90;;;;;;5085162;28;20596;-70
2023/08/14 08:49:16;;;;;;;3.03;1.30;;;13.40;99.90;;;;;;5077794;28;20192;-70
2023/08/14 08:51:48;;;;;;;2.70;1.55;;;13.40;99.90;;;;;;5076653;28;20329;-69
2023/08/14 08:54:19;;;;;;;3.05;1.30;;;13.40;99.90;;;;;;5079581;28;20613;-70
2023/08/14 08:56:50;;;;;;;2.40;1.33;;;13.40;99.90;;;;;;5071383;28;20197;-71
2023/08/14 08:59:22;;;;;;;2.97;1.30;;;13.40;99.90;;;;;;5090402;28;20203;-69
2023/08/14 09:01:57;;;;;;;2.92;1.30;;;13.30;99.90;;;;;;5081992;28;20219;-72
2023/08/14 09:04:28;;;;;;;4.93;1.65;;;13.40;99.90;;;;;;5078089;28;20200;-72
2023/08/14 09:06:58;;;;;;;3.90;1.42;;;13.30;99.90;;;;;;5081419;28;20200;-69
2023/08/14 09:09:29;;;;;;;3.97;1.50;;;13.30;99.90;;;;;;5078539;28;20653;-71
2023/08/14 09:12:00;;;;;;;2.72;1.20;;;13.30;99.90;;;;;;5081019;28;20231;-70
2023/08/14 09:14:31;;;;;;;2.92;1.30;;;13.20;99.90;;;;;;5082047;28;20196;-69
2023/08/14 09:17:04;;;;;;;3.75;1.42;;;13.20;99.90;;;;;;5085918;28;20200;-69
2023/08/14 09:19:35;;;;;;;4.00;1.23;;;13.20;99.90;;;;;;5073993;28;20714;-70
2023/08/14 09:22:06;;;;;;;2.92;1.27;;;13.20;99.90;;;;;;5072204;28;20697;-70
2023/08/14 09:24:38;;;;;;;5.47;1.48;;;13.10;99.90;;;;;;5076363;28;20551;-69
2023/08/14 09:27:09;;;;;;;4.35;1.73;;;13.20;99.90;;;;;;5079676;28;20207;-70
2023/08/14 09:29:39;;;;;;;2.03;1.70;;;13.10;99.90;;;;;;5082844;28;20192;-69
2023/08/14 09:32:13;;;;;;;3.03;1.40;;;13.10;99.90;;;;;;5081758;28;20196;-69
2023/08/14 09:34:44;;;;;;;5.50;1.55;;;13.10;99.90;;;;;;5077933;28;20207;-70
2023/08/14 09:37:15;;;;;;;3.92;1.52;;;13.10;99.90;;;;;;5072096;28;20232;-69
2023/08/14 09:39:46;;;;;;;3.92;1.60;;;13.10;99.90;;;;;;5078289;28;20201;-70
2023/08/14 09:42:17;;;;;;;2.97;1.55;;;13.00;99.90;;;;;;5082487;28;20717;-71
2023/08/14 09:44:48;;;;;;;4.65;1.70;;;13.00;99.90;;;;;;5085519;28;20192;-69
2023/08/14 09:47:21;;;;;;;4.65;1.80;;;13.00;99.90;;;;;;5083066;28;20196;-69
2023/08/14 09:49:52;;;;;;;3.50;1.90;;;13.00;99.90;;;;;;5074043;28;20204;-68
2023/08/14 09:52:24;;;;;;;6.40;1.90;;;13.00;99.90;;;;;;5077856;28;20196;-69
2023/08/14 09:54:55;;;;;;;6.00;1.95;;;13.00;99.90;;;;;;5076847;28;20201;-70
2023/08/14 09:57:27;;;;;;;3.88;1.90;;;13.00;99.90;;;;;;5074939;28;20731;-69
2023/08/14 09:59:58;;;;;;;5.70;2.03;;;12.90;99.90;;;;;;5077291;28;20647;-68
2023/08/14 10:02:32;;;;;;;8.65;1.92;;;12.90;99.90;;;;;;5077414;28;20212;-69
2023/08/14 10:05:04;;;;;;;6.15;2.13;;;12.90;99.90;;;;;;5077828;28;20206;-69
2023/08/14 10:07:36;;;;;;;4.90;1.90;;;12.80;99.90;;;;;;5078990;28;20233;-69
2023/08/14 10:10:09;;;;;;;3.45;1.80;;;12.90;99.90;;;;;;5087997;28;20235;-70
2023/08/14 10:12:44;;;;;;;4.10;1.85;;;12.80;99.90;;;;;;5082972;28;20192;-69
2023/08/14 10:15:18;;;;;;;5.80;2.13;;;12.80;99.90;;;;;;5076820;28;20199;-71
2023/08/14 10:17:57;;;;;;;5.13;2.35;;;12.80;99.90;;;;;;5079573;28;20547;-73
2023/08/14 10:20:30;;;;;;;4.30;2.10;;;12.70;99.90;;;;;;5088890;28;20231;-74
2023/08/14 10:23:01;;;;;;;4.00;2.10;;;12.70;99.90;;;;;;5075653;28;20224;-73
2023/08/14 10:25:32;;;;;;;5.28;2.20;;;12.70;99.90;;;;;;5076698;28;20193;-74
2023/08/14 10:28:03;;;;;;;5.20;2.10;;;12.70;99.90;;;;;;5076100;28;20200;-70
2023/08/14 10:30:34;;;;;;;5.22;2.63;;;12.70;99.90;;;;;;5075519;28;20188;-73
2023/08/14 10:33:08;;;;;;;4.97;2.13;;;12.70;99.90;;;;;;5072132;28;20205;-70
2023/08/14 10:35:54;;;;;;;6.03;2.40;;;12.70;99.90;;;;;;5085857;28;20199;-74
2023/08/14 10:38:27;;;;;;;6.18;1.98;;;12.70;99.90;;;;;;5087439;28;20256;-73
2023/08/14 10:41:06;;;;;;;6.15;2.78;;;12.70;99.90;;;;;;5083613;28;20220;-74
2023/08/14 10:43:38;;;;;;;4.70;2.30;;;12.70;99.90;;;;;;5087772;28;20277;-72
2023/08/14 10:46:12;;;;;;;6.65;2.30;;;12.60;99.90;;;;;;5081419;28;20196;-73
2023/08/14 10:48:46;;;;;;;5.80;2.60;;;12.60;99.90;;;;;;5089157;28;20231;-73
2023/08/14 10:51:17;;;;;;;4.72;2.30;;;12.60;99.90;;;;;;5076954;28;20548;-74
2023/08/14 10:53:48;;;;;;;5.03;2.50;;;12.60;99.90;;;;;;5087492;28;20200;-71
2023/08/14 10:56:19;;;;;;;5.85;2.72;;;12.60;99.90;;;;;;5095597;28;20184;-70
2023/08/14 10:58:54;;;;;;;5.55;2.65;;;12.60;99.90;;;;;;5085606;28;20193;-70
2023/08/14 11:01:37;;;;;;;5.70;2.60;;;12.60;99.90;;;;;;5079075;28;20212;-74
2023/08/14 11:04:10;;;;;;;5.18;2.90;;;12.60;99.90;;;;;;5086166;28;20200;-74
2023/08/14 11:07:08;;;;;;;5.82;2.70;;;12.50;99.90;;;;;;5081648;28;20199;-71
2023/08/14 11:09:40;;;;;;;3.63;2.50;;;12.50;99.90;;;;;;5086406;28;20274;-71
2023/08/14 11:12:11;;;;;;;7.60;2.70;;;12.50;99.90;;;;;;5075242;28;20201;-70
2023/08/14 11:14:43;;;;;;;6.63;2.90;;;12.50;99.90;;;;;;5088997;28;20283;-69
2023/08/14 11:17:14;;;;;;;6.45;3.15;;;12.50;99.90;;;;;;5093921;28;20200;-70
2023/08/14 11:19:47;;;;;;;5.15;2.78;;;12.50;99.90;;;;;;5090706;28;20200;-71
2023/08/14 11:22:18;;;;;;;8.07;4.00;;;12.50;99.90;;;;;;5080069;28;20247;-70
2023/08/14 11:24:50;;;;;;;5.65;3.67;;;12.40;99.90;;;;;;5074750;28;20537;-70
2023/08/14 11:27:20;;;;;;;10.77;4.57;;;12.40;99.90;;;;;;5092635;28;20188;-70
2023/08/14 11:29:52;;;;;;;7.82;4.47;;;12.40;99.90;;;;;;5095141;28;20191;-70
2023/08/14 11:32:23;;;;;;;8.55;5.20;;;12.40;99.90;;;;;;5095204;28;20184;-71
2023/08/14 11:34:56;;;;;;;8.70;4.53;;;12.40;99.90;;;;;;5093408;28;20192;-70
2023/08/14 11:37:27;;;;;;;7.78;4.60;;;12.30;99.90;;;;;;5074785;28;20188;-69
2023/08/14 11:40:02;;;;;;;10.43;5.80;;;12.30;99.90;;;;;;5089893;28;20584;-70
2023/08/14 11:42:33;;;;;;;8.13;5.28;;;12.30;99.90;;;;;;5094937;28;20216;-70
2023/08/14 11:45:05;;;;;;;9.52;5.55;;;12.30;99.90;;;;;;5094683;28;20200;-69
2023/08/14 11:47:37;;;;;;;7.75;5.13;;;12.20;99.90;;;;;;5094662;28;20196;-70
2023/08/14 11:50:10;;;;;;;8.00;5.75;;;12.20;99.90;;;;;;5094633;28;20188;-70
2023/08/14 11:52:42;;;;;;;7.13;4.55;;;12.20;99.90;;;;;;5093724;28;20610;-70
2023/08/14 11:55:14;;;;;;;9.23;4.95;;;12.20;99.90;;;;;;5094652;28;20188;-71
2023/08/14 11:57:46;;;;;;;8.18;4.88;;;12.10;99.90;;;;;;5094538;28;20192;-70
2023/08/14 12:00:18;;;;;;;7.85;4.65;;;12.10;99.90;;;;;;5094740;28;20200;-70
2023/08/14 12:02:51;;;;;;;7.38;4.90;;;12.10;99.90;;;;;;5085336;28;20228;-71
2023/08/14 12:05:24;;;;;;;7.03;4.63;;;12.10;99.90;;;;;;5074091;28;20197;-71
2023/08/14 12:07:55;;;;;;;5.97;4.32;;;12.10;99.90;;;;;;5074305;28;20200;-70
2023/08/14 12:10:26;;;;;;;4.70;4.20;;;12.10;99.90;;;;;;5074403;28;20582;-69
2023/08/14 12:12:56;;;;;;;6.15;4.13;;;12.10;99.90;;;;;;5073740;28;20189;-70
2023/08/14 12:15:27;;;;;;;6.00;4.05;;;12.10;99.90;;;;;;5073800;28;20197;-70
2023/08/14 12:17:58;;;;;;;4.63;3.78;;;12.10;99.90;;;;;;5073947;28;20185;-70
2023/08/14 12:20:35;;;;;;;5.18;3.90;;;12.00;99.90;;;;;;5074026;28;20193;-70
2023/08/14 12:23:18;;;;;;;6.57;3.78;;;12.00;99.90;;;;;;5073415;28;20745;-70
2023/08/14 12:25:48;;;;;;;6.05;3.80;;;12.00;99.90;;;;;;5074169;28;20189;-70
2023/08/14 12:28:19;;;;;;;4.63;3.63;;;12.00;99.90;;;;;;5073611;28;20214;-69
2023/08/14 12:30:50;;;;;;;5.28;3.80;;;12.00;99.90;;;;;;5073851;28;20189;-74
2023/08/14 12:33:21;;;;;;;6.18;3.47;;;11.90;99.90;;;;;;5073780;28;20637;-70
2023/08/14 12:35:54;;;;;;;6.43;3.85;;;11.90;99.90;;;;;;5076367;28;20242;-70
2023/08/14 12:38:25;;;;;;;5.57;3.83;;;11.90;99.90;;;;;;5075018;28;20204;-69
2023/08/14 12:40:56;;;;;;;6.05;3.60;;;11.90;99.90;;;;;;5077517;28;20197;-71
2023/08/14 12:43:27;;;;;;;4.40;3.58;;;11.90;99.90;;;;;;5091867;28;20721;-69
2023/08/14 12:45:58;;;;;;;3.70;3.28;;;11.90;99.90;;;;;;5092488;28;20646;-69
2023/08/14 12:48:28;;;;;;;6.10;3.47;;;11.90;99.90;;;;;;5087770;28;20652;-73
2023/08/14 12:51:01;;;;;;;4.00;3.03;;;11.90;99.90;;;;;;5072912;28;20196;-69
2023/08/14 12:53:32;;;;;;;4.72;2.65;;;11.90;99.90;;;;;;5088501;28;20679;-69
2023/08/14 12:56:02;;;;;;;3.03;2.50;;;11.90;99.90;;;;;;5092045;28;20203;-69
2023/08/14 12:58:33;;;;;;;3.20;2.60;;;11.80;99.90;;;;;;5082384;28;20196;-69
2023/08/14 13:01:04;;;;;;;3.40;2.60;;;11.80;99.90;;;;;;5082217;28;20189;-73
2023/08/14 13:03:35;;;;;;;4.00;2.67;;;11.80;99.90;;;;;;5076842;28;21669;-74
2023/08/14 13:06:08;;;;;;;3.75;2.50;;;11.80;99.90;;;;;;5089064;28;20539;-73
2023/08/14 13:08:40;;;;;;;3.85;2.60;;;11.80;99.90;;;;;;5073201;28;20200;-73
2023/08/14 13:11:11;;;;;;;4.55;2.40;;;11.70;99.90;;;;;;5073803;28;20692;-72